New Smithville, Pennsylvania
Current Conditions -  °F | °C
As of 4:30 PM on Wednesday 26 Nov 2014 (Local Time) from KRDG Reporting Station
Light Snow Light Snow  
Wind Chill: 26°   Ceiling: 1500
Heat Index: 35°   Visibility: 1.5mi
Dew Point: 31°   Wind: 13mph
Humidity: 85%   Direction: 340°NNW
Pressure: 29.89"   Gusts: NA
Location:  40.5336°N, 75.7775°W
Report Text: KRDG 262130Z 34011KT 1 1/2SM -SN BR FEW005 OVC015 02/M01 A2989 RMK AO2 SFC VIS 2 1/2 P0002 T00171006
Loading
Personal Weather Stations






























Interactive Weather Map New forecast layout! Learn more

10-Day Weather Forecast

Advertisements
Track Severe Weather on mobile